logo
Search for airport 
image banner adimage banner adimage banner ad
image banner ad

EHS011 - Ypecolsga

Located in , Netherlands

ICAO - , IATA -

Data provided by Airmate  

General information

Coordinates: N52°56'2" E5°36'18"
Elevation is feet MSL.
 
View others Airports in Gelderland

Operational data

Special qualification required
Current time UTC:
Current local time:
Weather at : EHLW - Leeuwarden/Leeuwarden ( 34 km )
METAR: EHLW 150925Z AUTO 20016KT 160V230 9999 SCT023 SCT027 BKN032 10/06 Q1002 WHT TEMPO 22025G35KT 3000 SHRAGS FEW010 SCT015CB BKN018
TAF: TAF EHLW 150844Z 1509/1521 21017G30KT 9999 BKN020 TEMPO 1510/1514 22018G38KT 2000 RA SHRA TSRAGS SCT010 SCT015CB BKN018 BECMG 1513/1515 28020G35KT TEMPO 1514/1521 30022G43KT 3000 SHRA TSRAGS SCT012 SCT018CB
View NOTAMs / SUP AIP / TFR affecting this airport [VIEW]
Communications frequencies: [VIEW]

Runways:

Airport contact information

Address: Netherlands

Satellite view of EHS011